createdAt,value
2023-04-27T00:01:52.986Z,50.30
2023-04-27T00:04:20.844Z,53.50
2023-04-27T00:06:48.809Z,46.40
2023-04-27T00:09:16.508Z,43.30
2023-04-27T00:11:44.332Z,42.00
2023-04-27T00:14:11.970Z,38.20
2023-04-27T00:16:39.655Z,27.50
2023-04-27T00:19:09.059Z,30.30
2023-04-27T00:21:36.697Z,31.30
2023-04-27T00:24:04.488Z,28.40
2023-04-27T00:26:32.549Z,24.60
2023-04-27T00:29:00.167Z,28.70
2023-04-27T00:31:27.846Z,38.20
2023-04-27T00:33:55.483Z,32.00
2023-04-27T00:36:23.071Z,29.60
2023-04-27T00:38:50.715Z,28.90
2023-04-27T00:41:18.301Z,30.20
2023-04-27T00:43:46.228Z,27.60
2023-04-27T00:46:14.218Z,34.70
2023-04-27T00:48:41.961Z,30.60
2023-04-27T00:51:09.589Z,25.40
2023-04-27T00:53:37.426Z,26.10
2023-04-27T00:56:05.906Z,25.20
2023-04-27T00:58:33.562Z,23.20
2023-04-27T01:01:01.303Z,22.20
2023-04-27T01:03:29.129Z,24.60
2023-04-27T01:05:59.322Z,18.10
2023-04-27T01:08:28.431Z,21.60
2023-04-27T01:10:56.391Z,16.80
2023-04-27T01:13:24.484Z,16.70
2023-04-27T01:15:52.148Z,22.60
2023-04-27T01:18:19.773Z,19.50
2023-04-27T01:20:47.444Z,16.40
2023-04-27T01:23:17.238Z,20.50
2023-04-27T01:25:45.284Z,15.70
2023-04-27T01:28:12.910Z,14.30
2023-04-27T01:30:40.582Z,13.50
2023-04-27T01:33:08.231Z,14.00
2023-04-27T01:35:36.194Z,14.50
2023-04-27T01:38:03.799Z,14.10
2023-04-27T01:40:31.407Z,16.00
2023-04-27T01:42:59.027Z,21.20
2023-04-27T01:45:26.770Z,17.40
2023-04-27T01:47:54.377Z,17.70
2023-04-27T01:50:22.122Z,16.60
2023-04-27T01:52:49.802Z,18.40
2023-04-27T01:55:17.478Z,22.60
2023-04-27T01:57:45.130Z,17.90
2023-04-27T02:00:13.419Z,19.80
2023-04-27T02:02:41.414Z,18.10
2023-04-27T02:05:09.892Z,17.00
2023-04-27T02:07:37.536Z,19.10
2023-04-27T02:10:05.848Z,17.50
2023-04-27T02:12:33.466Z,20.00
2023-04-27T02:15:01.101Z,18.20
2023-04-27T02:17:29.607Z,21.00
2023-04-27T02:19:57.721Z,18.80
2023-04-27T02:22:25.404Z,20.90
2023-04-27T02:24:53.155Z,16.40
2023-04-27T02:27:20.777Z,18.10
2023-04-27T02:29:48.955Z,16.80
2023-04-27T02:32:17.101Z,17.30
2023-04-27T02:34:44.886Z,19.80
2023-04-27T02:37:12.491Z,15.80
2023-04-27T02:39:40.086Z,19.30
2023-04-27T02:42:07.725Z,17.80
2023-04-27T02:44:35.480Z,13.60
2023-04-27T02:47:03.145Z,13.00
2023-04-27T02:49:30.810Z,13.40
2023-04-27T02:51:58.393Z,25.20
2023-04-27T02:54:26.126Z,17.90
2023-04-27T02:56:53.727Z,14.40
2023-04-27T02:59:21.408Z,18.70
2023-04-27T03:01:49.209Z,12.40
2023-04-27T03:04:17.968Z,13.80
2023-04-27T03:06:45.764Z,17.10
2023-04-27T03:09:14.011Z,14.20
2023-04-27T03:11:41.839Z,14.90
2023-04-27T03:14:09.596Z,17.70
2023-04-27T03:16:37.249Z,17.60
2023-04-27T03:19:04.947Z,17.50
2023-04-27T03:21:32.767Z,15.90
2023-04-27T03:24:00.467Z,14.80
2023-04-27T03:26:28.087Z,14.00
2023-04-27T03:28:56.056Z,15.10
2023-04-27T03:31:23.885Z,24.10
2023-04-27T03:33:51.993Z,20.80
2023-04-27T03:36:19.602Z,21.60
2023-04-27T03:38:47.498Z,20.40
2023-04-27T03:41:15.113Z,24.10
2023-04-27T03:43:42.742Z,22.40
2023-04-27T03:46:10.440Z,21.50
2023-04-27T03:48:38.131Z,28.20
2023-04-27T03:51:06.825Z,22.10
2023-04-27T03:53:34.922Z,21.10
2023-04-27T03:56:03.084Z,23.00
2023-04-27T03:58:30.898Z,22.10
2023-04-27T04:00:58.791Z,23.00
2023-04-27T04:03:26.487Z,24.30
2023-04-27T04:05:54.234Z,48.70
2023-04-27T04:08:21.883Z,31.30
2023-04-27T04:10:49.496Z,27.30
2023-04-27T04:13:17.138Z,25.20
2023-04-27T04:15:44.786Z,28.50
2023-04-27T04:18:12.572Z,31.00
2023-04-27T04:20:40.153Z,27.10
2023-04-27T04:23:07.768Z,28.10
2023-04-27T04:25:35.448Z,28.10
2023-04-27T04:28:03.093Z,33.60
2023-04-27T04:30:30.707Z,37.00
2023-04-27T04:32:58.773Z,32.30
2023-04-27T04:35:26.819Z,32.10
2023-04-27T04:37:54.430Z,30.60
2023-04-27T04:40:22.130Z,47.50
2023-04-27T04:42:49.750Z,30.20
2023-04-27T04:45:17.473Z,26.50
2023-04-27T04:47:45.187Z,24.80
2023-04-27T04:50:13.303Z,24.00
2023-04-27T04:52:41.020Z,20.20
2023-04-27T04:55:09.248Z,17.60
2023-04-27T04:57:37.397Z,15.20
2023-04-27T05:00:07.842Z,13.90
2023-04-27T05:02:35.541Z,14.40
2023-04-27T05:05:03.540Z,20.50
2023-04-27T05:07:31.245Z,18.70
2023-04-27T05:09:58.912Z,16.00
2023-04-27T05:12:26.579Z,16.10
2023-04-27T05:14:54.185Z,16.30
2023-04-27T05:17:21.824Z,12.10
2023-04-27T05:19:49.446Z,16.10
2023-04-27T05:22:17.058Z,21.80
2023-04-27T05:24:44.734Z,17.10
2023-04-27T05:27:13.759Z,15.30
2023-04-27T05:29:41.453Z,14.20
2023-04-27T05:32:09.737Z,17.70
2023-04-27T05:34:37.574Z,16.20
2023-04-27T05:37:05.435Z,13.90
2023-04-27T05:39:33.216Z,15.60
2023-04-27T05:42:02.676Z,15.20
2023-04-27T05:44:31.094Z,12.60
2023-04-27T05:46:58.773Z,13.40
2023-04-27T05:49:26.718Z,12.30
2023-04-27T05:51:54.401Z,13.50
2023-04-27T05:54:22.107Z,9.90
2023-04-27T05:56:51.277Z,12.80
2023-04-27T05:59:19.368Z,14.30
2023-04-27T06:01:47.106Z,10.50
2023-04-27T06:04:15.151Z,11.10
2023-04-27T06:06:44.818Z,10.70
2023-04-27T06:09:12.878Z,10.70
2023-04-27T06:11:40.879Z,7.80
2023-04-27T06:14:08.523Z,8.70
2023-04-27T06:16:36.528Z,8.90
2023-04-27T06:19:04.118Z,9.80
2023-04-27T06:21:35.111Z,12.40
2023-04-27T06:24:02.791Z,7.40
2023-04-27T06:26:30.418Z,11.80
2023-04-27T06:28:58.126Z,10.40
2023-04-27T06:31:26.848Z,13.10
2023-04-27T06:33:54.551Z,10.70
2023-04-27T06:36:22.292Z,14.60
2023-04-27T06:38:49.898Z,11.80
2023-04-27T06:41:17.508Z,12.10
2023-04-27T06:43:45.127Z,11.60
2023-04-27T06:46:12.761Z,7.10
2023-04-27T06:48:41.134Z,8.70
2023-04-27T06:51:08.749Z,11.90
2023-04-27T06:53:36.892Z,10.80
2023-04-27T06:56:04.917Z,6.70
2023-04-27T06:58:32.689Z,12.60
2023-04-27T07:01:00.315Z,6.50
2023-04-27T07:03:28.083Z,6.60
2023-04-27T07:05:57.341Z,9.50
2023-04-27T07:08:25.032Z,8.40
2023-04-27T07:10:52.646Z,8.20
2023-04-27T07:13:20.289Z,9.20
2023-04-27T07:15:47.994Z,12.50
2023-04-27T07:18:15.640Z,12.40
2023-04-27T07:20:43.286Z,15.70
2023-04-27T07:23:11.162Z,7.90
2023-04-27T07:25:40.330Z,8.20
2023-04-27T07:28:08.976Z,10.80
2023-04-27T07:30:37.018Z,6.20
2023-04-27T07:33:05.131Z,6.00
2023-04-27T07:35:32.995Z,6.40
2023-04-27T07:38:03.278Z,11.50
2023-04-27T07:40:32.895Z,8.90
2023-04-27T07:43:00.683Z,11.90
2023-04-27T07:45:32.448Z,9.00
2023-04-27T07:48:00.595Z,10.00
2023-04-27T07:50:30.124Z,6.60
2023-04-27T07:52:57.954Z,5.70
2023-04-27T07:55:25.836Z,8.60
2023-04-27T07:57:53.743Z,7.90
2023-04-27T08:00:22.212Z,9.60
2023-04-27T08:02:50.719Z,7.70
2023-04-27T08:05:19.038Z,6.30
2023-04-27T08:07:47.801Z,9.60
2023-04-27T08:10:15.911Z,7.00
2023-04-27T08:12:43.560Z,6.30
2023-04-27T08:15:11.573Z,11.70
2023-04-27T08:17:42.024Z,7.60
2023-04-27T08:20:11.621Z,7.50
2023-04-27T08:22:40.617Z,9.50
2023-04-27T08:25:09.041Z,6.60
2023-04-27T08:27:37.842Z,8.40
2023-04-27T08:30:06.280Z,5.70
2023-04-27T08:32:34.221Z,6.80
2023-04-27T08:35:01.979Z,6.20
2023-04-27T08:37:29.589Z,5.40
2023-04-27T08:39:57.187Z,7.30
2023-04-27T08:42:24.830Z,5.20
2023-04-27T08:44:52.444Z,7.60
2023-04-27T08:47:25.730Z,7.40
2023-04-27T08:49:56.054Z,6.90
2023-04-27T08:52:23.680Z,12.00
2023-04-27T08:54:51.440Z,5.70
2023-04-27T08:57:19.106Z,4.50
2023-04-27T08:59:46.730Z,7.60
2023-04-27T09:02:21.257Z,4.70
2023-04-27T09:04:49.063Z,7.00
2023-04-27T09:07:17.638Z,6.50
2023-04-27T09:09:45.365Z,8.10
2023-04-27T09:12:20.817Z,9.50
2023-04-27T09:15:06.262Z,7.60
2023-04-27T09:17:34.052Z,10.40
2023-04-27T09:20:10.260Z,7.80
2023-04-27T09:22:48.037Z,9.60
2023-04-27T09:25:29.378Z,10.70
2023-04-27T09:27:58.266Z,9.20
2023-04-27T09:30:29.469Z,7.10
2023-04-27T09:32:59.234Z,5.60
2023-04-27T09:35:29.218Z,7.10
2023-04-27T09:37:57.235Z,5.50
2023-04-27T09:40:30.790Z,9.70
2023-04-27T09:43:01.623Z,9.10
2023-04-27T09:45:29.406Z,7.10
2023-04-27T09:47:58.219Z,8.30
2023-04-27T09:50:25.927Z,8.80
2023-04-27T09:52:53.556Z,6.70
2023-04-27T09:55:25.942Z,5.20
2023-04-27T09:58:06.418Z,11.60
2023-04-27T10:01:04.824Z,5.90
2023-04-27T10:03:47.776Z,6.50
2023-04-27T10:06:36.282Z,11.90
2023-04-27T10:09:06.968Z,5.40
2023-04-27T10:11:42.111Z,7.00
2023-04-27T10:14:18.200Z,5.50
2023-04-27T10:16:56.777Z,7.20
2023-04-27T10:19:25.057Z,7.80
2023-04-27T10:21:53.959Z,5.40
2023-04-27T10:24:31.045Z,6.60
2023-04-27T10:27:05.856Z,5.90
2023-04-27T10:29:43.851Z,6.20
2023-04-27T10:32:19.162Z,6.00
2023-04-27T10:34:48.829Z,12.20
2023-04-27T10:37:16.835Z,13.60
2023-04-27T10:39:49.413Z,11.80
2023-04-27T10:42:30.522Z,10.70
2023-04-27T10:44:58.347Z,7.80
2023-04-27T10:47:36.601Z,10.20
2023-04-27T10:50:05.716Z,9.90
2023-04-27T10:52:33.428Z,13.70
2023-04-27T10:55:21.403Z,6.70
2023-04-27T10:57:53.331Z,10.70
2023-04-27T11:00:25.574Z,16.00
2023-04-27T11:02:54.167Z,9.90
2023-04-27T11:05:29.687Z,11.20
2023-04-27T11:08:07.759Z,9.00
2023-04-27T11:10:35.929Z,6.50
2023-04-27T11:13:31.038Z,10.00
2023-04-27T11:15:59.406Z,6.30
2023-04-27T11:18:31.689Z,4.80
2023-04-27T11:21:15.786Z,9.10
2023-04-27T11:23:43.697Z,6.70
2023-04-27T11:26:16.219Z,6.90
2023-04-27T11:31:12.020Z,5.20
2023-04-27T11:33:40.332Z,7.20
2023-04-27T11:36:21.652Z,20.90
2023-04-27T11:38:49.430Z,7.90
2023-04-27T11:41:17.740Z,8.20
2023-04-27T11:43:49.773Z,6.10
2023-04-27T11:46:22.473Z,6.10
2023-04-27T11:48:50.732Z,6.00
2023-04-27T11:51:18.380Z,6.60
2023-04-27T11:53:47.812Z,7.20
2023-04-27T11:56:15.783Z,4.70
2023-04-27T11:58:46.266Z,5.00
2023-04-27T12:01:16.650Z,5.80
2023-04-27T12:03:47.653Z,3.50
2023-04-27T12:06:32.193Z,3.90
2023-04-27T12:09:01.278Z,7.90
2023-04-27T12:11:28.932Z,5.40
2023-04-27T12:13:56.965Z,5.20
2023-04-27T12:16:24.747Z,7.70
2023-04-27T12:18:52.441Z,18.60
2023-04-27T12:21:20.320Z,6.10
2023-04-27T12:23:47.922Z,5.20
2023-04-27T12:26:15.617Z,3.40
2023-04-27T12:28:43.727Z,5.00
2023-04-27T12:31:13.964Z,8.10
2023-04-27T12:33:41.753Z,4.50
2023-04-27T12:36:09.482Z,6.80
2023-04-27T12:38:37.566Z,6.20
2023-04-27T12:41:05.264Z,7.30
2023-04-27T12:43:33.014Z,9.60
2023-04-27T12:46:00.625Z,10.90
2023-04-27T12:48:28.608Z,6.30
2023-04-27T12:50:56.885Z,11.40
2023-04-27T12:53:24.515Z,6.60
2023-04-27T12:55:53.466Z,6.50
2023-04-27T12:58:21.678Z,7.30
2023-04-27T13:00:49.288Z,12.70
2023-04-27T13:03:17.067Z,10.20
2023-04-27T13:05:45.659Z,31.30
2023-04-27T13:08:13.352Z,13.60
2023-04-27T13:10:41.658Z,12.60
2023-04-27T13:13:09.282Z,7.30
2023-04-27T13:15:37.468Z,7.40
2023-04-27T13:18:06.602Z,7.20
2023-04-27T13:20:34.597Z,11.50
2023-04-27T13:23:04.803Z,11.90
2023-04-27T13:25:32.441Z,6.60
2023-04-27T13:28:00.126Z,9.80
2023-04-27T13:30:28.200Z,6.60
2023-04-27T13:33:04.396Z,7.50
2023-04-27T13:35:38.511Z,4.60
2023-04-27T13:38:06.292Z,19.20
2023-04-27T13:40:34.046Z,5.80
2023-04-27T13:43:01.630Z,9.20
2023-04-27T13:45:29.240Z,7.90
2023-04-27T13:47:56.846Z,8.20
2023-04-27T13:50:24.592Z,7.50
2023-04-27T13:52:52.202Z,7.00
2023-04-27T13:55:19.818Z,6.00
2023-04-27T13:57:47.422Z,5.00
2023-04-27T14:00:15.597Z,6.60
2023-04-27T14:02:43.269Z,8.80
2023-04-27T14:05:11.308Z,5.00
2023-04-27T14:07:38.874Z,5.70
2023-04-27T14:10:07.294Z,6.10
2023-04-27T14:12:35.937Z,7.10
2023-04-27T14:15:03.798Z,5.90
2023-04-27T14:17:31.459Z,6.00
2023-04-27T14:19:59.066Z,6.40
2023-04-27T14:22:26.800Z,7.00
2023-04-27T14:24:56.441Z,5.60
2023-04-27T14:27:24.155Z,8.30
2023-04-27T14:29:51.766Z,4.80
2023-04-27T14:32:19.476Z,6.60
2023-04-27T14:34:47.514Z,7.50
2023-04-27T14:37:15.183Z,7.10
2023-04-27T14:39:45.131Z,4.90
2023-04-27T14:42:13.257Z,7.90
2023-04-27T14:44:40.980Z,5.40
2023-04-27T14:47:08.734Z,5.70
2023-04-27T14:49:36.380Z,8.80
2023-04-27T14:52:06.558Z,5.60
2023-04-27T14:54:35.589Z,4.30
2023-04-27T14:57:03.582Z,7.20
2023-04-27T14:59:31.222Z,5.30
2023-04-27T15:01:58.976Z,6.70
2023-04-27T15:04:26.832Z,6.00
2023-04-27T15:06:54.550Z,5.40
2023-04-27T15:09:22.240Z,5.70
2023-04-27T15:11:49.986Z,7.70
2023-04-27T15:14:17.668Z,6.40
2023-04-27T15:16:45.358Z,5.40
2023-04-27T15:19:13.586Z,5.70
2023-04-27T15:21:41.469Z,5.60
2023-04-27T15:24:09.206Z,4.90
2023-04-27T15:26:36.863Z,6.50
2023-04-27T15:29:04.537Z,7.20
2023-04-27T15:31:32.239Z,5.50
2023-04-27T15:33:59.888Z,4.80
2023-04-27T15:36:28.360Z,6.60
2023-04-27T15:38:56.020Z,6.30
2023-04-27T15:41:23.685Z,5.90
2023-04-27T15:43:51.864Z,6.80
2023-04-27T15:46:19.620Z,5.50
2023-04-27T15:48:47.272Z,8.10
2023-04-27T15:51:15.109Z,5.80
2023-04-27T15:53:42.739Z,5.90
2023-04-27T15:56:10.341Z,4.70
2023-04-27T15:58:38.035Z,5.90
2023-04-27T16:01:05.757Z,8.50
2023-04-27T16:03:34.848Z,7.20
2023-04-27T16:06:02.704Z,6.50
2023-04-27T16:08:32.265Z,5.70
2023-04-27T16:11:00.786Z,5.70
2023-04-27T16:13:31.454Z,7.60
2023-04-27T16:15:59.530Z,8.10
2023-04-27T16:18:27.181Z,7.40
2023-04-27T16:20:55.123Z,6.80
2023-04-27T16:23:24.346Z,5.90
2023-04-27T16:25:52.457Z,9.40
2023-04-27T16:28:20.607Z,7.10
2023-04-27T16:30:48.229Z,8.30
2023-04-27T16:33:16.390Z,9.50
2023-04-27T16:35:44.049Z,9.50
2023-04-27T16:38:11.644Z,6.60
2023-04-27T16:40:39.271Z,5.20
2023-04-27T16:43:06.873Z,10.50
2023-04-27T16:45:34.568Z,9.20
2023-04-27T16:48:02.531Z,6.80
2023-04-27T16:50:31.742Z,8.50
2023-04-27T16:53:07.032Z,8.40
2023-04-27T16:55:35.060Z,8.80
2023-04-27T16:58:02.682Z,11.40
2023-04-27T17:00:30.483Z,8.40
2023-04-27T17:02:58.164Z,13.70
2023-04-27T17:05:26.004Z,16.30
2023-04-27T17:07:53.688Z,21.80
2023-04-27T17:10:21.468Z,39.00
2023-04-27T17:12:49.199Z,35.80
2023-04-27T17:15:18.325Z,14.40
2023-04-27T17:17:45.946Z,9.40
2023-04-27T17:20:13.599Z,7.60
2023-04-27T17:22:41.263Z,7.90
2023-04-27T17:25:09.271Z,7.90
2023-04-27T17:27:36.893Z,9.40
2023-04-27T17:30:05.187Z,8.60
2023-04-27T17:32:33.408Z,8.20
2023-04-27T17:35:01.137Z,9.60
2023-04-27T17:37:28.792Z,6.80
2023-04-27T17:39:56.439Z,7.30
2023-04-27T17:42:24.028Z,13.30
2023-04-27T17:44:51.734Z,18.30
2023-04-27T17:47:20.568Z,18.80
2023-04-27T17:49:48.239Z,19.30
2023-04-27T17:52:16.053Z,21.40
2023-04-27T17:54:43.648Z,21.20
2023-04-27T17:57:11.331Z,22.80
2023-04-27T17:59:38.939Z,20.80
2023-04-27T18:02:06.792Z,18.20
2023-04-27T18:04:34.685Z,19.40
2023-04-27T18:07:02.485Z,20.20
2023-04-27T18:09:32.752Z,18.00
2023-04-27T18:12:00.886Z,15.70
2023-04-27T18:14:28.526Z,21.00
2023-04-27T18:16:56.300Z,20.80
2023-04-27T18:19:24.022Z,26.30
2023-04-27T18:21:51.735Z,43.30
2023-04-27T18:24:19.380Z,45.90
2023-04-27T18:26:47.059Z,56.10
2023-04-27T18:29:14.875Z,77.20
2023-04-27T18:31:42.787Z,102.00
2023-04-27T18:34:10.743Z,115.80
2023-04-27T18:36:38.425Z,101.70
2023-04-27T18:39:06.373Z,88.90
2023-04-27T18:41:34.055Z,72.70
2023-04-27T18:44:05.918Z,78.00
2023-04-27T18:46:33.870Z,59.60
2023-04-27T18:49:01.856Z,61.30
2023-04-27T18:51:29.467Z,46.50
2023-04-27T18:53:57.123Z,33.90
2023-04-27T18:56:24.725Z,31.40
2023-04-27T18:58:53.316Z,30.30
2023-04-27T19:01:25.518Z,26.80
2023-04-27T19:03:53.705Z,25.00
2023-04-27T19:06:21.552Z,26.00
2023-04-27T19:08:49.312Z,27.50
2023-04-27T19:11:19.527Z,31.80
2023-04-27T19:13:47.110Z,24.60
2023-04-27T19:16:15.577Z,30.80
2023-04-27T19:18:43.521Z,29.90
2023-04-27T19:21:11.367Z,30.10
2023-04-27T19:23:39.166Z,72.30
2023-04-27T19:26:13.150Z,91.30
2023-04-27T19:28:41.791Z,94.70
2023-04-27T19:31:10.100Z,102.60
2023-04-27T19:33:38.088Z,84.50
2023-04-27T19:36:06.056Z,66.90
2023-04-27T19:38:34.303Z,63.50
2023-04-27T19:41:04.238Z,71.60
2023-04-27T19:43:32.024Z,62.90
2023-04-27T19:46:01.443Z,55.10
2023-04-27T19:48:29.098Z,57.30
2023-04-27T19:50:56.756Z,69.80
2023-04-27T19:53:24.443Z,83.90
2023-04-27T19:55:52.151Z,82.10
2023-04-27T19:58:19.759Z,69.40
2023-04-27T20:00:47.384Z,70.60
2023-04-27T20:03:16.354Z,74.40
2023-04-27T20:05:44.911Z,66.40
2023-04-27T20:08:12.790Z,57.80
2023-04-27T20:10:41.327Z,66.60
2023-04-27T20:13:09.907Z,70.40
2023-04-27T20:15:37.667Z,69.30
2023-04-27T20:18:05.698Z,74.80
2023-04-27T20:20:33.899Z,65.30
2023-04-27T20:23:01.516Z,67.10
2023-04-27T20:25:29.203Z,62.80
2023-04-27T20:27:56.801Z,54.60
2023-04-27T20:30:24.899Z,65.30
2023-04-27T20:32:52.702Z,74.70
2023-04-27T20:35:20.889Z,75.60
2023-04-27T20:37:48.985Z,75.80
2023-04-27T20:40:17.751Z,75.60
2023-04-27T20:42:45.823Z,64.30
2023-04-27T20:45:13.783Z,61.60
2023-04-27T20:47:42.125Z,58.60
2023-04-27T20:50:09.986Z,56.20
2023-04-27T20:52:37.693Z,45.50
2023-04-27T20:55:06.292Z,45.40
2023-04-27T20:57:33.927Z,44.20
2023-04-27T21:00:01.544Z,40.50
2023-04-27T21:02:29.317Z,41.30
2023-04-27T21:04:57.175Z,34.30
2023-04-27T21:07:24.933Z,49.90
2023-04-27T21:09:52.524Z,66.60
2023-04-27T21:12:20.202Z,75.10
2023-04-27T21:14:47.820Z,75.30
2023-04-27T21:17:15.650Z,98.40
2023-04-27T21:19:43.285Z,134.00
2023-04-27T21:22:11.081Z,118.30
2023-04-27T21:24:38.703Z,77.30
2023-04-27T21:27:06.499Z,61.60
2023-04-27T21:29:35.499Z,52.90
2023-04-27T21:32:03.216Z,59.10
2023-04-27T21:34:31.051Z,46.60
2023-04-27T21:36:58.633Z,42.90
2023-04-27T21:39:26.296Z,45.90
2023-04-27T21:41:53.927Z,43.90
2023-04-27T21:44:21.551Z,42.50
2023-04-27T21:46:49.275Z,39.80
2023-04-27T21:49:17.038Z,44.80
2023-04-27T21:51:44.602Z,43.90
2023-04-27T21:54:12.351Z,43.80
2023-04-27T21:56:40.217Z,42.70
2023-04-27T21:59:08.207Z,41.10
2023-04-27T22:01:35.877Z,43.10
2023-04-27T22:04:05.120Z,50.40
2023-04-27T22:06:33.609Z,49.20
2023-04-27T22:09:01.504Z,46.50
2023-04-27T22:11:29.157Z,64.20
2023-04-27T22:13:57.339Z,56.40
2023-04-27T22:16:25.184Z,54.20
2023-04-27T22:18:53.976Z,67.70
2023-04-27T22:21:21.708Z,67.10
2023-04-27T22:23:49.514Z,59.70
2023-04-27T22:26:17.193Z,46.40
2023-04-27T22:28:44.872Z,51.00
2023-04-27T22:31:12.488Z,41.80
2023-04-27T22:33:40.118Z,45.80
2023-04-27T22:36:08.197Z,44.70
2023-04-27T22:38:36.091Z,46.20
2023-04-27T22:41:03.891Z,43.10
2023-04-27T22:43:31.642Z,39.10
2023-04-27T22:45:59.248Z,36.30
2023-04-27T22:48:27.198Z,30.00
2023-04-27T22:50:54.795Z,29.40
2023-04-27T22:53:23.107Z,28.00
2023-04-27T22:55:51.034Z,28.80
2023-04-27T22:58:18.809Z,34.90
2023-04-27T23:00:46.450Z,39.30
2023-04-27T23:03:14.553Z,28.90
2023-04-27T23:05:43.262Z,36.10
2023-04-27T23:08:10.924Z,29.10
2023-04-27T23:10:38.985Z,37.40
2023-04-27T23:13:07.415Z,45.70
2023-04-27T23:15:35.137Z,41.50
2023-04-27T23:18:03.202Z,53.10
2023-04-27T23:20:31.180Z,52.20
2023-04-27T23:22:58.841Z,45.60
2023-04-27T23:25:26.534Z,46.70
2023-04-27T23:27:54.169Z,47.80
2023-04-27T23:30:22.481Z,41.50
2023-04-27T23:32:50.576Z,49.80
2023-04-27T23:35:18.412Z,45.90
2023-04-27T23:37:46.039Z,46.60
2023-04-27T23:40:14.395Z,40.40
2023-04-27T23:42:42.096Z,42.90
2023-04-27T23:45:10.370Z,32.10
2023-04-27T23:47:38.059Z,31.40
2023-04-27T23:50:06.299Z,33.10
2023-04-27T23:52:33.934Z,26.80
2023-04-27T23:55:01.806Z,31.70
2023-04-27T23:57:29.429Z,32.80
2023-04-27T23:59:57.032Z,37.20
